sensor_id;sensor_type;location;lat;lon;timestamp;temperature;humidity
1417;DHT22;703;51.162;13.574;2023-11-19T00:00:34;3.80;99.90
1417;DHT22;703;51.162;13.574;2023-11-19T00:03:01;3.80;99.90
1417;DHT22;703;51.162;13.574;2023-11-19T00:05:27;3.80;99.90
1417;DHT22;703;51.162;13.574;2023-11-19T00:07:53;3.90;99.90
1417;DHT22;703;51.162;13.574;2023-11-19T00:10:19;3.80;99.90
1417;DHT22;703;51.162;13.574;2023-11-19T00:12:46;3.80;99.90
1417;DHT22;703;51.162;13.574;2023-11-19T00:15:16;3.70;99.90
1417;DHT22;703;51.162;13.574;2023-11-19T00:17:46;3.80;99.90
1417;DHT22;703;51.162;13.574;2023-11-19T00:20:13;3.80;99.90
1417;DHT22;703;51.162;13.574;2023-11-19T00:22:39;3.80;99.90
1417;DHT22;703;51.162;13.574;2023-11-19T00:25:06;3.70;99.90
1417;DHT22;703;51.162;13.574;2023-11-19T00:27:32;3.80;99.90
1417;DHT22;703;51.162;13.574;2023-11-19T00:29:57;3.80;99.90
1417;DHT22;703;51.162;13.574;2023-11-19T00:32:23;3.80;99.90
1417;DHT22;703;51.162;13.574;2023-11-19T00:34:49;3.80;99.90
1417;DHT22;703;51.162;13.574;2023-11-19T00:37:15;3.80;99.90
1417;DHT22;703;51.162;13.574;2023-11-19T00:39:43;3.80;99.90
1417;DHT22;703;51.162;13.574;2023-11-19T00:42:09;3.70;99.90
1417;DHT22;703;51.162;13.574;2023-11-19T00:44:37;3.70;99.90
1417;DHT22;703;51.162;13.574;2023-11-19T00:47:03;3.70;99.90
1417;DHT22;703;51.162;13.574;2023-11-19T00:49:29;3.70;99.90
1417;DHT22;703;51.162;13.574;2023-11-19T00:51:54;3.60;99.90
1417;DHT22;703;51.162;13.574;2023-11-19T00:54:20;3.70;99.90
1417;DHT22;703;51.162;13.574;2023-11-19T00:56:45;3.60;99.90
1417;DHT22;703;51.162;13.574;2023-11-19T00:59:11;3.60;99.90
1417;DHT22;703;51.162;13.574;2023-11-19T01:01:36;3.60;99.90
1417;DHT22;703;51.162;13.574;2023-11-19T01:04:02;3.60;99.90
1417;DHT22;703;51.162;13.574;2023-11-19T01:06:32;3.60;99.90
1417;DHT22;703;51.162;13.574;2023-11-19T01:08:58;3.60;99.90
1417;DHT22;703;51.162;13.574;2023-11-19T01:11:24;3.60;99.90
1417;DHT22;703;51.162;13.574;2023-11-19T01:13:50;3.50;99.90
1417;DHT22;703;51.162;13.574;2023-11-19T01:16:16;3.50;99.90
1417;DHT22;703;51.162;13.574;2023-11-19T01:18:42;3.50;99.90
1417;DHT22;703;51.162;13.574;2023-11-19T01:21:08;3.40;99.90
1417;DHT22;703;51.162;13.574;2023-11-19T01:23:34;3.50;99.90
1417;DHT22;703;51.162;13.574;2023-11-19T01:26:00;3.60;99.90
1417;DHT22;703;51.162;13.574;2023-11-19T01:28:25;3.50;99.90
1417;DHT22;703;51.162;13.574;2023-11-19T01:30:51;3.50;99.90
1417;DHT22;703;51.162;13.574;2023-11-19T01:33:16;3.50;99.90
1417;DHT22;703;51.162;13.574;2023-11-19T01:35:42;3.50;99.90
1417;DHT22;703;51.162;13.574;2023-11-19T01:38:07;3.50;99.90
1417;DHT22;703;51.162;13.574;2023-11-19T01:40:36;3.50;99.90
1417;DHT22;703;51.162;13.574;2023-11-19T01:43:05;3.40;99.90
1417;DHT22;703;51.162;13.574;2023-11-19T01:45:31;3.40;99.90
1417;DHT22;703;51.162;13.574;2023-11-19T01:47:58;3.50;99.90
1417;DHT22;703;51.162;13.574;2023-11-19T01:50:23;3.50;99.90
1417;DHT22;703;51.162;13.574;2023-11-19T01:52:53;3.50;99.90
1417;DHT22;703;51.162;13.574;2023-11-19T01:55:20;3.50;99.90
1417;DHT22;703;51.162;13.574;2023-11-19T01:57:47;3.50;99.90
1417;DHT22;703;51.162;13.574;2023-11-19T02:00:13;3.50;99.90
1417;DHT22;703;51.162;13.574;2023-11-19T02:02:42;3.60;99.90
1417;DHT22;703;51.162;13.574;2023-11-19T02:05:09;3.60;99.90
1417;DHT22;703;51.162;13.574;2023-11-19T02:07:35;3.60;99.90
1417;DHT22;703;51.162;13.574;2023-11-19T02:10:00;3.60;99.90
1417;DHT22;703;51.162;13.574;2023-11-19T02:12:31;3.60;99.90
1417;DHT22;703;51.162;13.574;2023-11-19T02:14:59;3.60;99.90
1417;DHT22;703;51.162;13.574;2023-11-19T02:17:34;3.70;99.90
1417;DHT22;703;51.162;13.574;2023-11-19T02:20:06;3.70;99.90
1417;DHT22;703;51.162;13.574;2023-11-19T02:22:34;3.80;99.90
1417;DHT22;703;51.162;13.574;2023-11-19T02:25:04;3.80;99.90
1417;DHT22;703;51.162;13.574;2023-11-19T02:27:54;3.80;99.90
1417;DHT22;703;51.162;13.574;2023-11-19T02:30:21;3.80;99.90
1417;DHT22;703;51.162;13.574;2023-11-19T02:32:52;3.90;99.90
1417;DHT22;703;51.162;13.574;2023-11-19T02:35:18;3.90;99.90
1417;DHT22;703;51.162;13.574;2023-11-19T02:40:10;4.00;99.90
1417;DHT22;703;51.162;13.574;2023-11-19T02:42:36;4.00;99.90
1417;DHT22;703;51.162;13.574;2023-11-19T02:45:02;4.00;99.90
1417;DHT22;703;51.162;13.574;2023-11-19T02:47:31;4.10;99.90
1417;DHT22;703;51.162;13.574;2023-11-19T02:57:16;4.20;99.90
1417;DHT22;703;51.162;13.574;2023-11-19T02:59:44;8.00;99.90
1417;DHT22;703;51.162;13.574;2023-11-19T03:02:10;4.20;99.90
1417;DHT22;703;51.162;13.574;2023-11-19T03:12:01;4.20;99.90
1417;DHT22;703;51.162;13.574;2023-11-19T03:14:27;4.20;99.90
1417;DHT22;703;51.162;13.574;2023-11-19T03:16:53;4.20;99.90
1417;DHT22;703;51.162;13.574;2023-11-19T03:19:18;4.20;99.90
1417;DHT22;703;51.162;13.574;2023-11-19T03:21:44;4.20;99.90
1417;DHT22;703;51.162;13.574;2023-11-19T03:24:10;4.30;99.90
1417;DHT22;703;51.162;13.574;2023-11-19T03:26:35;4.20;99.90
1417;DHT22;703;51.162;13.574;2023-11-19T03:29:02;4.30;99.90
1417;DHT22;703;51.162;13.574;2023-11-19T03:31:28;4.30;99.90
1417;DHT22;703;51.162;13.574;2023-11-19T03:33:54;4.30;99.90
1417;DHT22;703;51.162;13.574;2023-11-19T03:36:19;4.30;99.90
1417;DHT22;703;51.162;13.574;2023-11-19T03:38:45;4.30;99.90
1417;DHT22;703;51.162;13.574;2023-11-19T03:41:14;4.40;99.90
1417;DHT22;703;51.162;13.574;2023-11-19T03:43:40;4.30;99.90
1417;DHT22;703;51.162;13.574;2023-11-19T03:46:19;4.30;99.90
1417;DHT22;703;51.162;13.574;2023-11-19T03:48:49;4.40;99.90
1417;DHT22;703;51.162;13.574;2023-11-19T03:51:14;4.40;99.90
1417;DHT22;703;51.162;13.574;2023-11-19T03:53:45;4.40;99.90
1417;DHT22;703;51.162;13.574;2023-11-19T03:56:11;4.50;99.90
1417;DHT22;703;51.162;13.574;2023-11-19T03:58:37;4.50;99.90
1417;DHT22;703;51.162;13.574;2023-11-19T04:01:04;4.50;99.90
1417;DHT22;703;51.162;13.574;2023-11-19T04:03:29;4.40;99.90
1417;DHT22;703;51.162;13.574;2023-11-19T04:05:55;4.40;99.90
1417;DHT22;703;51.162;13.574;2023-11-19T04:08:21;4.50;99.90
1417;DHT22;703;51.162;13.574;2023-11-19T04:10:47;4.50;99.90
1417;DHT22;703;51.162;13.574;2023-11-19T04:13:12;4.50;99.90
1417;DHT22;703;51.162;13.574;2023-11-19T04:15:38;4.50;99.90
1417;DHT22;703;51.162;13.574;2023-11-19T04:18:03;4.40;99.90
1417;DHT22;703;51.162;13.574;2023-11-19T04:20:29;6.40;99.90
1417;DHT22;703;51.162;13.574;2023-11-19T04:22:54;4.30;99.90
1417;DHT22;703;51.162;13.574;2023-11-19T04:25:20;4.30;99.90
1417;DHT22;703;51.162;13.574;2023-11-19T04:27:45;4.30;99.90
1417;DHT22;703;51.162;13.574;2023-11-19T04:30:13;4.30;99.90
1417;DHT22;703;51.162;13.574;2023-11-19T04:32:39;4.30;99.90
1417;DHT22;703;51.162;13.574;2023-11-19T04:35:05;4.20;99.90
1417;DHT22;703;51.162;13.574;2023-11-19T04:37:32;4.30;99.90
1417;DHT22;703;51.162;13.574;2023-11-19T04:39:57;4.30;99.90
1417;DHT22;703;51.162;13.574;2023-11-19T04:42:23;4.30;99.90
1417;DHT22;703;51.162;13.574;2023-11-19T04:44:49;4.30;99.90
1417;DHT22;703;51.162;13.574;2023-11-19T04:47:15;4.20;99.90
1417;DHT22;703;51.162;13.574;2023-11-19T04:49:41;4.30;99.90
1417;DHT22;703;51.162;13.574;2023-11-19T04:52:08;4.30;99.90
1417;DHT22;703;51.162;13.574;2023-11-19T04:54:33;4.30;99.90
1417;DHT22;703;51.162;13.574;2023-11-19T04:56:59;4.30;99.90
1417;DHT22;703;51.162;13.574;2023-11-19T04:59:24;4.20;99.90
1417;DHT22;703;51.162;13.574;2023-11-19T05:01:50;4.20;99.90
1417;DHT22;703;51.162;13.574;2023-11-19T05:04:16;4.30;99.90
1417;DHT22;703;51.162;13.574;2023-11-19T05:06:42;4.30;99.90
1417;DHT22;703;51.162;13.574;2023-11-19T05:09:07;4.30;99.90
1417;DHT22;703;51.162;13.574;2023-11-19T05:11:33;4.20;99.90
1417;DHT22;703;51.162;13.574;2023-11-19T05:13:59;4.20;99.90
1417;DHT22;703;51.162;13.574;2023-11-19T05:16:25;4.20;99.90
1417;DHT22;703;51.162;13.574;2023-11-19T05:18:51;4.20;99.90
1417;DHT22;703;51.162;13.574;2023-11-19T05:21:17;4.20;99.90
1417;DHT22;703;51.162;13.574;2023-11-19T05:23:43;4.30;99.90
1417;DHT22;703;51.162;13.574;2023-11-19T05:26:08;4.20;99.90
1417;DHT22;703;51.162;13.574;2023-11-19T05:28:37;4.30;99.90
1417;DHT22;703;51.162;13.574;2023-11-19T05:31:03;4.30;99.90
1417;DHT22;703;51.162;13.574;2023-11-19T05:33:28;4.30;99.90
1417;DHT22;703;51.162;13.574;2023-11-19T05:35:54;4.30;99.90
1417;DHT22;703;51.162;13.574;2023-11-19T05:38:19;4.30;99.90
1417;DHT22;703;51.162;13.574;2023-11-19T05:40:46;4.30;99.90
1417;DHT22;703;51.162;13.574;2023-11-19T05:43:13;4.30;99.90
1417;DHT22;703;51.162;13.574;2023-11-19T05:45:40;4.20;99.90
1417;DHT22;703;51.162;13.574;2023-11-19T05:48:05;4.30;99.90
1417;DHT22;703;51.162;13.574;2023-11-19T05:50:31;4.30;99.90
1417;DHT22;703;51.162;13.574;2023-11-19T05:52:56;4.40;99.90
1417;DHT22;703;51.162;13.574;2023-11-19T05:55:22;4.40;99.90
1417;DHT22;703;51.162;13.574;2023-11-19T05:57:48;4.30;99.90
1417;DHT22;703;51.162;13.574;2023-11-19T06:00:14;4.40;99.90
1417;DHT22;703;51.162;13.574;2023-11-19T06:02:40;4.40;99.90
1417;DHT22;703;51.162;13.574;2023-11-19T06:05:06;4.40;99.90
1417;DHT22;703;51.162;13.574;2023-11-19T06:07:32;7.00;99.90
1417;DHT22;703;51.162;13.574;2023-11-19T06:09:58;4.30;99.90
1417;DHT22;703;51.162;13.574;2023-11-19T06:12:24;4.40;99.90
1417;DHT22;703;51.162;13.574;2023-11-19T06:14:49;4.50;99.90
1417;DHT22;703;51.162;13.574;2023-11-19T06:17:15;4.40;99.90
1417;DHT22;703;51.162;13.574;2023-11-19T06:19:40;4.40;99.90
1417;DHT22;703;51.162;13.574;2023-11-19T06:22:06;4.50;99.90
1417;DHT22;703;51.162;13.574;2023-11-19T06:24:32;4.50;99.90
1417;DHT22;703;51.162;13.574;2023-11-19T06:26:57;4.50;99.90
1417;DHT22;703;51.162;13.574;2023-11-19T06:29:23;4.50;99.90
1417;DHT22;703;51.162;13.574;2023-11-19T06:31:49;4.60;99.90
1417;DHT22;703;51.162;13.574;2023-11-19T06:34:14;4.60;99.90
1417;DHT22;703;51.162;13.574;2023-11-19T06:36:40;4.50;99.90
1417;DHT22;703;51.162;13.574;2023-11-19T06:39:06;4.70;99.90
1417;DHT22;703;51.162;13.574;2023-11-19T06:41:31;4.70;99.90
1417;DHT22;703;51.162;13.574;2023-11-19T06:43:57;4.70;99.90
1417;DHT22;703;51.162;13.574;2023-11-19T06:46:22;4.70;99.90
1417;DHT22;703;51.162;13.574;2023-11-19T06:48:48;4.80;99.90
1417;DHT22;703;51.162;13.574;2023-11-19T06:51:13;4.90;99.90
1417;DHT22;703;51.162;13.574;2023-11-19T06:53:39;7.00;99.90
1417;DHT22;703;51.162;13.574;2023-11-19T06:56:23;4.90;99.90
1417;DHT22;703;51.162;13.574;2023-11-19T06:58:49;5.00;99.90
1417;DHT22;703;51.162;13.574;2023-11-19T07:01:16;4.90;99.90
1417;DHT22;703;51.162;13.574;2023-11-19T07:03:42;5.00;99.90
1417;DHT22;703;51.162;13.574;2023-11-19T07:06:07;5.00;99.90
1417;DHT22;703;51.162;13.574;2023-11-19T07:08:33;5.00;99.90
1417;DHT22;703;51.162;13.574;2023-11-19T07:10:59;5.10;99.90
1417;DHT22;703;51.162;13.574;2023-11-19T07:13:25;5.20;99.90
1417;DHT22;703;51.162;13.574;2023-11-19T07:15:53;5.20;99.90
1417;DHT22;703;51.162;13.574;2023-11-19T07:18:19;5.30;99.90
1417;DHT22;703;51.162;13.574;2023-11-19T07:20:47;5.30;99.90
1417;DHT22;703;51.162;13.574;2023-11-19T07:23:13;5.30;99.90
1417;DHT22;703;51.162;13.574;2023-11-19T07:25:40;5.30;99.90
1417;DHT22;703;51.162;13.574;2023-11-19T07:28:05;5.50;99.90
1417;DHT22;703;51.162;13.574;2023-11-19T07:30:31;5.30;99.90
1417;DHT22;703;51.162;13.574;2023-11-19T07:32:56;5.30;99.90
1417;DHT22;703;51.162;13.574;2023-11-19T07:35:22;5.50;99.90
1417;DHT22;703;51.162;13.574;2023-11-19T07:37:48;5.60;99.90
1417;DHT22;703;51.162;13.574;2023-11-19T07:40:15;5.70;99.90
1417;DHT22;703;51.162;13.574;2023-11-19T07:42:41;7.30;99.90
1417;DHT22;703;51.162;13.574;2023-11-19T07:45:06;5.90;99.90
1417;DHT22;703;51.162;13.574;2023-11-19T07:47:32;6.00;99.90
1417;DHT22;703;51.162;13.574;2023-11-19T07:49:58;6.10;99.90
1417;DHT22;703;51.162;13.574;2023-11-19T07:52:23;6.10;99.90
1417;DHT22;703;51.162;13.574;2023-11-19T07:54:49;6.20;99.90
1417;DHT22;703;51.162;13.574;2023-11-19T07:57:15;6.20;99.90
1417;DHT22;703;51.162;13.574;2023-11-19T07:59:40;6.30;99.90
1417;DHT22;703;51.162;13.574;2023-11-19T08:02:06;6.50;99.90
1417;DHT22;703;51.162;13.574;2023-11-19T08:04:31;6.60;99.90
1417;DHT22;703;51.162;13.574;2023-11-19T08:06:57;6.70;99.90
1417;DHT22;703;51.162;13.574;2023-11-19T08:09:22;6.80;99.90
1417;DHT22;703;51.162;13.574;2023-11-19T08:11:48;6.90;99.90
1417;DHT22;703;51.162;13.574;2023-11-19T08:14:14;7.10;99.90
1417;DHT22;703;51.162;13.574;2023-11-19T08:16:39;7.20;99.90
1417;DHT22;703;51.162;13.574;2023-11-19T08:19:05;7.50;99.90
1417;DHT22;703;51.162;13.574;2023-11-19T08:21:31;7.80;99.90
1417;DHT22;703;51.162;13.574;2023-11-19T08:23:56;8.00;99.90
1417;DHT22;703;51.162;13.574;2023-11-19T08:26:22;8.10;99.90
1417;DHT22;703;51.162;13.574;2023-11-19T08:28:47;4.50;99.90
1417;DHT22;703;51.162;13.574;2023-11-19T08:31:13;8.60;99.90
1417;DHT22;703;51.162;13.574;2023-11-19T08:33:38;8.90;99.90
1417;DHT22;703;51.162;13.574;2023-11-19T08:36:04;8.90;99.90
1417;DHT22;703;51.162;13.574;2023-11-19T08:38:30;9.10;99.90
1417;DHT22;703;51.162;13.574;2023-11-19T08:40:56;9.00;99.90
1417;DHT22;703;51.162;13.574;2023-11-19T08:43:26;9.10;99.90
1417;DHT22;703;51.162;13.574;2023-11-19T08:45:51;9.00;99.90
1417;DHT22;703;51.162;13.574;2023-11-19T08:48:17;9.20;99.90
1417;DHT22;703;51.162;13.574;2023-11-19T08:50:42;9.20;99.90
1417;DHT22;703;51.162;13.574;2023-11-19T08:53:08;9.50;99.90
1417;DHT22;703;51.162;13.574;2023-11-19T08:55:33;9.40;99.90
1417;DHT22;703;51.162;13.574;2023-11-19T08:57:59;10.30;99.90
1417;DHT22;703;51.162;13.574;2023-11-19T09:00:24;9.50;99.90
1417;DHT22;703;51.162;13.574;2023-11-19T09:02:50;9.40;99.90
1417;DHT22;703;51.162;13.574;2023-11-19T09:05:15;9.50;99.90
1417;DHT22;703;51.162;13.574;2023-11-19T09:07:41;9.60;99.90
1417;DHT22;703;51.162;13.574;2023-11-19T09:10:06;9.50;99.90
1417;DHT22;703;51.162;13.574;2023-11-19T09:12:34;9.60;99.90
1417;DHT22;703;51.162;13.574;2023-11-19T09:14:59;9.60;99.90
1417;DHT22;703;51.162;13.574;2023-11-19T09:17:25;9.70;99.90
1417;DHT22;703;51.162;13.574;2023-11-19T09:19:50;9.70;99.90
1417;DHT22;703;51.162;13.574;2023-11-19T09:22:16;9.70;99.90
1417;DHT22;703;51.162;13.574;2023-11-19T09:24:41;9.50;99.90
1417;DHT22;703;51.162;13.574;2023-11-19T09:27:09;9.60;99.90
1417;DHT22;703;51.162;13.574;2023-11-19T09:29:34;9.70;99.90
1417;DHT22;703;51.162;13.574;2023-11-19T09:32:00;9.80;99.90
1417;DHT22;703;51.162;13.574;2023-11-19T09:34:26;9.90;99.90
1417;DHT22;703;51.162;13.574;2023-11-19T09:36:51;9.90;99.90
1417;DHT22;703;51.162;13.574;2023-11-19T09:39:17;9.90;99.90
1417;DHT22;703;51.162;13.574;2023-11-19T09:41:44;10.00;99.90
1417;DHT22;703;51.162;13.574;2023-11-19T09:44:10;10.00;99.90
1417;DHT22;703;51.162;13.574;2023-11-19T09:46:38;10.10;99.90
1417;DHT22;703;51.162;13.574;2023-11-19T09:49:05;10.50;99.90
1417;DHT22;703;51.162;13.574;2023-11-19T09:51:33;10.20;99.90
1417;DHT22;703;51.162;13.574;2023-11-19T09:53:58;10.20;99.90
1417;DHT22;703;51.162;13.574;2023-11-19T09:56:24;10.10;99.90
1417;DHT22;703;51.162;13.574;2023-11-19T09:58:50;10.10;99.90
1417;DHT22;703;51.162;13.574;2023-11-19T10:01:16;10.10;99.90
1417;DHT22;703;51.162;13.574;2023-11-19T10:03:42;10.20;99.90
1417;DHT22;703;51.162;13.574;2023-11-19T10:06:10;10.40;99.90
1417;DHT22;703;51.162;13.574;2023-11-19T10:08:39;10.60;99.90
1417;DHT22;703;51.162;13.574;2023-11-19T10:11:08;10.70;99.90
1417;DHT22;703;51.162;13.574;2023-11-19T10:13:36;10.90;99.90
1417;DHT22;703;51.162;13.574;2023-11-19T10:16:08;10.90;99.90
1417;DHT22;703;51.162;13.574;2023-11-19T10:18:34;11.00;99.90
1417;DHT22;703;51.162;13.574;2023-11-19T10:21:05;11.00;99.90
1417;DHT22;703;51.162;13.574;2023-11-19T10:23:31;11.00;99.90
1417;DHT22;703;51.162;13.574;2023-11-19T10:26:03;11.10;99.90
1417;DHT22;703;51.162;13.574;2023-11-19T10:28:39;11.10;99.90
1417;DHT22;703;51.162;13.574;2023-11-19T10:31:05;11.20;99.90
1417;DHT22;703;51.162;13.574;2023-11-19T10:33:31;11.20;99.90
1417;DHT22;703;51.162;13.574;2023-11-19T10:35:57;11.30;99.90
1417;DHT22;703;51.162;13.574;2023-11-19T10:38:24;11.30;99.90
1417;DHT22;703;51.162;13.574;2023-11-19T10:40:50;11.30;99.90
1417;DHT22;703;51.162;13.574;2023-11-19T10:43:20;11.50;99.90
1417;DHT22;703;51.162;13.574;2023-11-19T10:45:47;11.50;99.90
1417;DHT22;703;51.162;13.574;2023-11-19T10:48:13;11.40;99.90
1417;DHT22;703;51.162;13.574;2023-11-19T10:50:40;11.40;99.90
1417;DHT22;703;51.162;13.574;2023-11-19T10:53:08;11.30;99.90
1417;DHT22;703;51.162;13.574;2023-11-19T10:55:35;11.30;99.90
1417;DHT22;703;51.162;13.574;2023-11-19T10:58:02;11.30;99.90
1417;DHT22;703;51.162;13.574;2023-11-19T11:00:29;11.20;99.90
1417;DHT22;703;51.162;13.574;2023-11-19T11:03:02;11.20;99.90
1417;DHT22;703;51.162;13.574;2023-11-19T11:05:32;11.20;99.90
1417;DHT22;703;51.162;13.574;2023-11-19T11:08:01;11.10;99.90
1417;DHT22;703;51.162;13.574;2023-11-19T11:10:28;11.10;99.90
1417;DHT22;703;51.162;13.574;2023-11-19T11:12:59;11.20;99.90
1417;DHT22;703;51.162;13.574;2023-11-19T11:15:29;11.20;99.90
1417;DHT22;703;51.162;13.574;2023-11-19T11:17:59;11.20;99.90
1417;DHT22;703;51.162;13.574;2023-11-19T11:20:30;11.30;99.90
1417;DHT22;703;51.162;13.574;2023-11-19T11:25:54;11.30;99.90
1417;DHT22;703;51.162;13.574;2023-11-19T11:31:21;11.30;99.90
1417;DHT22;703;51.162;13.574;2023-11-19T11:34:09;11.40;99.90
1417;DHT22;703;51.162;13.574;2023-11-19T11:37:10;11.40;99.90
1417;DHT22;703;51.162;13.574;2023-11-19T11:39:40;11.50;99.90
1417;DHT22;703;51.162;13.574;2023-11-19T11:45:00;12.00;99.90
1417;DHT22;703;51.162;13.574;2023-11-19T11:50:19;12.40;99.90
1417;DHT22;703;51.162;13.574;2023-11-19T11:55:29;12.60;99.90
1417;DHT22;703;51.162;13.574;2023-11-19T11:57:59;12.40;99.90
1417;DHT22;703;51.162;13.574;2023-11-19T12:00:39;12.30;99.90
1417;DHT22;703;51.162;13.574;2023-11-19T12:03:05;12.30;99.90
1417;DHT22;703;51.162;13.574;2023-11-19T12:05:32;12.30;99.90
1417;DHT22;703;51.162;13.574;2023-11-19T12:08:05;12.50;99.90
1417;DHT22;703;51.162;13.574;2023-11-19T12:10:37;12.60;99.90
1417;DHT22;703;51.162;13.574;2023-11-19T12:13:05;12.60;99.90
1417;DHT22;703;51.162;13.574;2023-11-19T12:15:33;12.80;99.90
1417;DHT22;703;51.162;13.574;2023-11-19T12:18:19;12.80;99.90
1417;DHT22;703;51.162;13.574;2023-11-19T12:20:45;12.60;99.90
1417;DHT22;703;51.162;13.574;2023-11-19T12:23:10;12.60;99.90
1417;DHT22;703;51.162;13.574;2023-11-19T12:25:36;12.40;99.90
1417;DHT22;703;51.162;13.574;2023-11-19T12:28:02;12.40;99.90
1417;DHT22;703;51.162;13.574;2023-11-19T12:30:29;12.60;99.90
1417;DHT22;703;51.162;13.574;2023-11-19T12:32:55;12.60;99.90
1417;DHT22;703;51.162;13.574;2023-11-19T12:35:21;13.00;99.90
1417;DHT22;703;51.162;13.574;2023-11-19T12:37:48;11.90;99.90
1417;DHT22;703;51.162;13.574;2023-11-19T12:42:40;10.90;99.90
1417;DHT22;703;51.162;13.574;2023-11-19T12:45:06;10.80;99.90
1417;DHT22;703;51.162;13.574;2023-11-19T12:47:33;10.80;99.90
1417;DHT22;703;51.162;13.574;2023-11-19T12:49:59;10.70;99.90
1417;DHT22;703;51.162;13.574;2023-11-19T12:52:24;10.70;99.90
1417;DHT22;703;51.162;13.574;2023-11-19T12:54:50;11.40;99.90
1417;DHT22;703;51.162;13.574;2023-11-19T12:57:16;10.50;99.90
1417;DHT22;703;51.162;13.574;2023-11-19T12:59:54;10.20;99.90
1417;DHT22;703;51.162;13.574;2023-11-19T13:02:21;10.40;99.90
1417;DHT22;703;51.162;13.574;2023-11-19T13:04:47;10.40;99.90
1417;DHT22;703;51.162;13.574;2023-11-19T13:07:12;10.50;99.90
1417;DHT22;703;51.162;13.574;2023-11-19T13:09:38;11.00;99.90
1417;DHT22;703;51.162;13.574;2023-11-19T13:12:15;11.50;99.90
1417;DHT22;703;51.162;13.574;2023-11-19T13:14:41;11.70;99.90
1417;DHT22;703;51.162;13.574;2023-11-19T13:17:07;12.10;99.90
1417;DHT22;703;51.162;13.574;2023-11-19T13:19:33;11.90;99.90
1417;DHT22;703;51.162;13.574;2023-11-19T13:21:59;11.80;99.90
1417;DHT22;703;51.162;13.574;2023-11-19T13:24:24;11.80;99.90
1417;DHT22;703;51.162;13.574;2023-11-19T13:26:50;11.70;99.90
1417;DHT22;703;51.162;13.574;2023-11-19T13:29:15;11.80;99.90
1417;DHT22;703;51.162;13.574;2023-11-19T13:31:41;11.90;99.90
1417;DHT22;703;51.162;13.574;2023-11-19T13:34:06;11.90;99.90
1417;DHT22;703;51.162;13.574;2023-11-19T13:36:33;11.80;99.90
1417;DHT22;703;51.162;13.574;2023-11-19T13:38:59;11.70;99.90
1417;DHT22;703;51.162;13.574;2023-11-19T13:41:25;11.90;99.90
1417;DHT22;703;51.162;13.574;2023-11-19T13:43:51;12.00;99.90
1417;DHT22;703;51.162;13.574;2023-11-19T13:46:17;12.00;99.90
1417;DHT22;703;51.162;13.574;2023-11-19T13:48:42;12.10;99.90
1417;DHT22;703;51.162;13.574;2023-11-19T13:51:08;12.00;99.90
1417;DHT22;703;51.162;13.574;2023-11-19T13:53:35;12.00;99.90
1417;DHT22;703;51.162;13.574;2023-11-19T13:56:01;12.10;99.90
1417;DHT22;703;51.162;13.574;2023-11-19T13:58:26;12.20;99.90
1417;DHT22;703;51.162;13.574;2023-11-19T14:00:51;12.20;99.90
1417;DHT22;703;51.162;13.574;2023-11-19T14:03:17;12.30;99.90
1417;DHT22;703;51.162;13.574;2023-11-19T14:05:43;12.20;99.90
1417;DHT22;703;51.162;13.574;2023-11-19T14:08:08;12.20;99.90
1417;DHT22;703;51.162;13.574;2023-11-19T14:10:38;12.20;99.90
1417;DHT22;703;51.162;13.574;2023-11-19T14:13:06;12.20;99.90
1417;DHT22;703;51.162;13.574;2023-11-19T14:15:31;12.20;99.90
1417;DHT22;703;51.162;13.574;2023-11-19T14:17:56;12.20;99.90
1417;DHT22;703;51.162;13.574;2023-11-19T14:20:22;12.20;99.90
1417;DHT22;703;51.162;13.574;2023-11-19T14:22:48;12.00;99.90
1417;DHT22;703;51.162;13.574;2023-11-19T14:25:14;12.00;99.90
1417;DHT22;703;51.162;13.574;2023-11-19T14:27:42;11.90;99.90
1417;DHT22;703;51.162;13.574;2023-11-19T14:30:09;11.90;99.90
1417;DHT22;703;51.162;13.574;2023-11-19T14:32:42;12.00;99.90
1417;DHT22;703;51.162;13.574;2023-11-19T14:35:09;12.00;99.90
1417;DHT22;703;51.162;13.574;2023-11-19T14:37:35;11.90;99.90
1417;DHT22;703;51.162;13.574;2023-11-19T14:40:00;11.90;99.90
1417;DHT22;703;51.162;13.574;2023-11-19T14:42:29;12.00;99.90
1417;DHT22;703;51.162;13.574;2023-11-19T14:44:54;11.90;99.90
1417;DHT22;703;51.162;13.574;2023-11-19T14:47:23;11.90;99.90
1417;DHT22;703;51.162;13.574;2023-11-19T14:49:49;11.90;99.90
1417;DHT22;703;51.162;13.574;2023-11-19T14:52:15;11.80;99.90
1417;DHT22;703;51.162;13.574;2023-11-19T14:54:40;11.70;99.90
1417;DHT22;703;51.162;13.574;2023-11-19T14:57:06;11.70;99.90
1417;DHT22;703;51.162;13.574;2023-11-19T14:59:35;11.70;99.90
1417;DHT22;703;51.162;13.574;2023-11-19T15:02:01;11.60;99.90
1417;DHT22;703;51.162;13.574;2023-11-19T15:04:27;11.60;99.90
1417;DHT22;703;51.162;13.574;2023-11-19T15:06:52;11.70;99.90
1417;DHT22;703;51.162;13.574;2023-11-19T15:09:18;11.50;99.90
1417;DHT22;703;51.162;13.574;2023-11-19T15:11:44;11.40;99.90
1417;DHT22;703;51.162;13.574;2023-11-19T15:14:12;11.30;99.90
1417;DHT22;703;51.162;13.574;2023-11-19T15:16:40;11.20;99.90
1417;DHT22;703;51.162;13.574;2023-11-19T15:19:06;11.20;99.90
1417;DHT22;703;51.162;13.574;2023-11-19T15:21:33;11.20;99.90
1417;DHT22;703;51.162;13.574;2023-11-19T15:23:59;11.30;99.90
1417;DHT22;703;51.162;13.574;2023-11-19T15:31:22;11.20;99.90
1417;DHT22;703;51.162;13.574;2023-11-19T15:33:47;11.10;99.90
1417;DHT22;703;51.162;13.574;2023-11-19T15:36:13;10.90;99.90
1417;DHT22;703;51.162;13.574;2023-11-19T15:38:39;10.80;99.90
1417;DHT22;703;51.162;13.574;2023-11-19T15:41:05;10.80;99.90
1417;DHT22;703;51.162;13.574;2023-11-19T15:43:31;10.90;99.90
1417;DHT22;703;51.162;13.574;2023-11-19T15:45:57;10.80;99.90
1417;DHT22;703;51.162;13.574;2023-11-19T15:48:22;10.90;99.90
1417;DHT22;703;51.162;13.574;2023-11-19T15:50:48;10.80;99.90
1417;DHT22;703;51.162;13.574;2023-11-19T15:53:13;10.80;99.90
1417;DHT22;703;51.162;13.574;2023-11-19T15:55:39;10.70;99.90
1417;DHT22;703;51.162;13.574;2023-11-19T15:58:04;10.60;99.90
1417;DHT22;703;51.162;13.574;2023-11-19T16:00:30;10.50;99.90
1417;DHT22;703;51.162;13.574;2023-11-19T16:02:57;10.50;99.90
1417;DHT22;703;51.162;13.574;2023-11-19T16:05:22;10.50;99.90
1417;DHT22;703;51.162;13.574;2023-11-19T16:07:49;10.40;99.90
1417;DHT22;703;51.162;13.574;2023-11-19T16:10:15;10.50;99.90
1417;DHT22;703;51.162;13.574;2023-11-19T16:12:41;11.30;99.90
1417;DHT22;703;51.162;13.574;2023-11-19T16:15:07;10.50;99.90
1417;DHT22;703;51.162;13.574;2023-11-19T16:17:35;10.50;99.90
1417;DHT22;703;51.162;13.574;2023-11-19T16:20:02;10.40;99.90
1417;DHT22;703;51.162;13.574;2023-11-19T16:22:30;10.40;99.90
1417;DHT22;703;51.162;13.574;2023-11-19T16:38:24;10.40;99.90
1417;DHT22;703;51.162;13.574;2023-11-19T16:40:51;10.50;99.90
1417;DHT22;703;51.162;13.574;2023-11-19T16:43:17;10.30;99.90
1417;DHT22;703;51.162;13.574;2023-11-19T16:45:44;10.30;99.90
1417;DHT22;703;51.162;13.574;2023-11-19T16:48:10;10.30;99.90
1417;DHT22;703;51.162;13.574;2023-11-19T16:50:36;10.40;99.90
1417;DHT22;703;51.162;13.574;2023-11-19T16:53:02;10.40;99.90
1417;DHT22;703;51.162;13.574;2023-11-19T16:55:30;10.30;99.90
1417;DHT22;703;51.162;13.574;2023-11-19T16:57:55;10.40;99.90
1417;DHT22;703;51.162;13.574;2023-11-19T17:00:21;10.10;99.90